sensor_id;sensor_type;location;lat;lon;timestamp;P1;durP1;ratioP1;P2;durP2;ratioP2
40314;SDS011;26021;45.640;11.302;2023-12-07T00:01:03;22.45;;;14.60;;
40314;SDS011;26021;45.640;11.302;2023-12-07T00:03:29;22.20;;;14.43;;
40314;SDS011;26021;45.640;11.302;2023-12-07T00:05:55;27.48;;;16.05;;
40314;SDS011;26021;45.640;11.302;2023-12-07T00:08:20;36.38;;;20.90;;
40314;SDS011;26021;45.640;11.302;2023-12-07T00:10:46;31.75;;;17.95;;
40314;SDS011;26021;45.640;11.302;2023-12-07T00:13:11;23.60;;;14.93;;
40314;SDS011;26021;45.640;11.302;2023-12-07T00:15:36;18.42;;;11.73;;
40314;SDS011;26021;45.640;11.302;2023-12-07T00:18:02;16.45;;;11.52;;
40314;SDS011;26021;45.640;11.302;2023-12-07T00:20:28;11.13;;;8.18;;
40314;SDS011;26021;45.640;11.302;2023-12-07T00:22:54;19.17;;;12.57;;
40314;SDS011;26021;45.640;11.302;2023-12-07T00:25:20;19.48;;;12.45;;
40314;SDS011;26021;45.640;11.302;2023-12-07T00:27:46;16.65;;;11.63;;
40314;SDS011;26021;45.640;11.302;2023-12-07T00:30:12;15.90;;;11.40;;
40314;SDS011;26021;45.640;11.302;2023-12-07T00:32:40;17.23;;;10.68;;
40314;SDS011;26021;45.640;11.302;2023-12-07T00:35:09;13.75;;;9.60;;
40314;SDS011;26021;45.640;11.302;2023-12-07T00:37:35;14.23;;;10.45;;
40314;SDS011;26021;45.640;11.302;2023-12-07T00:40:01;15.27;;;9.95;;
40314;SDS011;26021;45.640;11.302;2023-12-07T00:42:27;12.68;;;8.90;;
40314;SDS011;26021;45.640;11.302;2023-12-07T00:44:52;13.55;;;8.90;;
40314;SDS011;26021;45.640;11.302;2023-12-07T00:47:18;10.35;;;7.47;;
40314;SDS011;26021;45.640;11.302;2023-12-07T00:49:43;12.10;;;8.43;;
40314;SDS011;26021;45.640;11.302;2023-12-07T00:52:09;10.93;;;7.80;;
40314;SDS011;26021;45.640;11.302;2023-12-07T00:54:34;10.23;;;7.35;;
40314;SDS011;26021;45.640;11.302;2023-12-07T00:57:00;11.45;;;6.75;;
40314;SDS011;26021;45.640;11.302;2023-12-07T00:59:25;10.30;;;7.13;;
40314;SDS011;26021;45.640;11.302;2023-12-07T01:01:51;10.43;;;7.43;;
40314;SDS011;26021;45.640;11.302;2023-12-07T01:04:16;9.52;;;7.00;;
40314;SDS011;26021;45.640;11.302;2023-12-07T01:06:42;10.43;;;7.00;;
40314;SDS011;26021;45.640;11.302;2023-12-07T01:09:08;10.07;;;7.35;;
40314;SDS011;26021;45.640;11.302;2023-12-07T01:11:38;10.45;;;6.70;;
40314;SDS011;26021;45.640;11.302;2023-12-07T01:14:05;8.07;;;6.30;;
40314;SDS011;26021;45.640;11.302;2023-12-07T01:16:30;11.02;;;6.88;;
40314;SDS011;26021;45.640;11.302;2023-12-07T01:18:56;15.60;;;9.48;;
40314;SDS011;26021;45.640;11.302;2023-12-07T01:21:23;15.00;;;9.43;;
40314;SDS011;26021;45.640;11.302;2023-12-07T01:23:48;9.73;;;6.72;;
40314;SDS011;26021;45.640;11.302;2023-12-07T01:26:14;10.55;;;6.68;;
40314;SDS011;26021;45.640;11.302;2023-12-07T01:28:39;8.55;;;6.03;;
40314;SDS011;26021;45.640;11.302;2023-12-07T01:31:04;9.00;;;5.75;;
40314;SDS011;26021;45.640;11.302;2023-12-07T01:33:30;10.55;;;6.85;;
40314;SDS011;26021;45.640;11.302;2023-12-07T01:35:55;8.30;;;5.30;;
40314;SDS011;26021;45.640;11.302;2023-12-07T01:38:20;8.00;;;5.88;;
40314;SDS011;26021;45.640;11.302;2023-12-07T01:40:46;6.88;;;5.90;;
40314;SDS011;26021;45.640;11.302;2023-12-07T01:43:12;9.82;;;5.93;;
40314;SDS011;26021;45.640;11.302;2023-12-07T01:45:37;8.35;;;5.40;;
40314;SDS011;26021;45.640;11.302;2023-12-07T01:48:03;7.43;;;5.47;;
40314;SDS011;26021;45.640;11.302;2023-12-07T01:50:29;7.18;;;5.70;;
40314;SDS011;26021;45.640;11.302;2023-12-07T01:52:57;6.53;;;5.47;;
40314;SDS011;26021;45.640;11.302;2023-12-07T01:55:26;6.85;;;5.03;;
40314;SDS011;26021;45.640;11.302;2023-12-07T01:57:52;7.47;;;5.05;;
40314;SDS011;26021;45.640;11.302;2023-12-07T02:00:18;8.98;;;5.05;;
40314;SDS011;26021;45.640;11.302;2023-12-07T02:02:44;9.20;;;5.68;;
40314;SDS011;26021;45.640;11.302;2023-12-07T02:05:12;6.57;;;4.63;;
40314;SDS011;26021;45.640;11.302;2023-12-07T02:07:39;5.13;;;4.03;;
40314;SDS011;26021;45.640;11.302;2023-12-07T02:10:06;5.88;;;4.10;;
40314;SDS011;26021;45.640;11.302;2023-12-07T02:12:32;4.68;;;4.05;;
40314;SDS011;26021;45.640;11.302;2023-12-07T02:14:58;4.78;;;3.88;;
40314;SDS011;26021;45.640;11.302;2023-12-07T02:20:09;4.65;;;3.90;;
40314;SDS011;26021;45.640;11.302;2023-12-07T02:22:42;5.07;;;4.13;;
40314;SDS011;26021;45.640;11.302;2023-12-07T02:25:14;5.88;;;4.38;;
40314;SDS011;26021;45.640;11.302;2023-12-07T02:27:42;5.43;;;4.53;;
40314;SDS011;26021;45.640;11.302;2023-12-07T02:30:11;5.70;;;4.00;;
40314;SDS011;26021;45.640;11.302;2023-12-07T02:32:37;5.10;;;3.65;;
40314;SDS011;26021;45.640;11.302;2023-12-07T02:35:07;4.68;;;4.15;;
40314;SDS011;26021;45.640;11.302;2023-12-07T02:37:50;5.82;;;4.30;;
40314;SDS011;26021;45.640;11.302;2023-12-07T02:40:17;7.60;;;4.57;;
40314;SDS011;26021;45.640;11.302;2023-12-07T02:42:46;5.53;;;4.32;;
40314;SDS011;26021;45.640;11.302;2023-12-07T02:45:12;6.43;;;4.70;;
40314;SDS011;26021;45.640;11.302;2023-12-07T02:47:38;6.78;;;5.00;;
40314;SDS011;26021;45.640;11.302;2023-12-07T02:50:07;6.25;;;4.25;;
40314;SDS011;26021;45.640;11.302;2023-12-07T02:52:33;4.78;;;4.22;;
40314;SDS011;26021;45.640;11.302;2023-12-07T02:54:59;4.68;;;4.00;;
40314;SDS011;26021;45.640;11.302;2023-12-07T02:57:24;8.18;;;4.55;;
40314;SDS011;26021;45.640;11.302;2023-12-07T02:59:50;5.60;;;4.30;;
40314;SDS011;26021;45.640;11.302;2023-12-07T03:02:15;7.82;;;4.60;;
40314;SDS011;26021;45.640;11.302;2023-12-07T03:04:41;5.80;;;4.78;;
40314;SDS011;26021;45.640;11.302;2023-12-07T03:07:06;6.03;;;4.50;;
40314;SDS011;26021;45.640;11.302;2023-12-07T03:09:32;6.18;;;4.55;;
40314;SDS011;26021;45.640;11.302;2023-12-07T03:11:57;8.57;;;4.53;;
40314;SDS011;26021;45.640;11.302;2023-12-07T03:14:22;5.72;;;4.70;;
40314;SDS011;26021;45.640;11.302;2023-12-07T03:16:48;6.55;;;4.00;;
40314;SDS011;26021;45.640;11.302;2023-12-07T03:19:13;5.47;;;4.35;;
40314;SDS011;26021;45.640;11.302;2023-12-07T03:21:39;6.97;;;3.92;;
40314;SDS011;26021;45.640;11.302;2023-12-07T03:24:06;5.07;;;3.80;;
40314;SDS011;26021;45.640;11.302;2023-12-07T03:26:33;5.05;;;3.75;;
40314;SDS011;26021;45.640;11.302;2023-12-07T03:28:58;4.15;;;3.70;;
40314;SDS011;26021;45.640;11.302;2023-12-07T03:31:24;5.43;;;4.38;;
40314;SDS011;26021;45.640;11.302;2023-12-07T03:33:49;5.43;;;4.63;;
40314;SDS011;26021;45.640;11.302;2023-12-07T03:36:15;5.65;;;4.18;;
40314;SDS011;26021;45.640;11.302;2023-12-07T03:38:40;4.93;;;3.92;;
40314;SDS011;26021;45.640;11.302;2023-12-07T03:41:06;5.57;;;4.15;;
40314;SDS011;26021;45.640;11.302;2023-12-07T03:43:31;4.53;;;3.65;;
40314;SDS011;26021;45.640;11.302;2023-12-07T03:45:57;4.25;;;3.72;;
40314;SDS011;26021;45.640;11.302;2023-12-07T03:48:22;5.20;;;3.58;;
40314;SDS011;26021;45.640;11.302;2023-12-07T03:50:47;4.72;;;3.47;;
40314;SDS011;26021;45.640;11.302;2023-12-07T03:53:13;4.35;;;3.10;;
40314;SDS011;26021;45.640;11.302;2023-12-07T03:55:38;6.35;;;3.30;;
40314;SDS011;26021;45.640;11.302;2023-12-07T03:58:04;3.60;;;3.28;;
40314;SDS011;26021;45.640;11.302;2023-12-07T04:00:30;4.13;;;3.08;;
40314;SDS011;26021;45.640;11.302;2023-12-07T04:02:57;3.42;;;2.95;;
40314;SDS011;26021;45.640;11.302;2023-12-07T04:05:22;4.03;;;3.15;;
40314;SDS011;26021;45.640;11.302;2023-12-07T04:07:48;5.57;;;3.25;;
40314;SDS011;26021;45.640;11.302;2023-12-07T04:10:13;4.63;;;2.95;;
40314;SDS011;26021;45.640;11.302;2023-12-07T04:12:39;3.83;;;3.00;;
40314;SDS011;26021;45.640;11.302;2023-12-07T04:15:05;4.18;;;3.50;;
40314;SDS011;26021;45.640;11.302;2023-12-07T04:17:31;4.03;;;3.22;;
40314;SDS011;26021;45.640;11.302;2023-12-07T04:19:56;5.10;;;3.38;;
40314;SDS011;26021;45.640;11.302;2023-12-07T04:22:23;5.40;;;4.05;;
40314;SDS011;26021;45.640;11.302;2023-12-07T04:24:48;7.40;;;3.10;;
40314;SDS011;26021;45.640;11.302;2023-12-07T04:27:14;4.60;;;3.45;;
40314;SDS011;26021;45.640;11.302;2023-12-07T04:29:40;3.85;;;3.15;;
40314;SDS011;26021;45.640;11.302;2023-12-07T04:32:06;4.97;;;3.50;;
40314;SDS011;26021;45.640;11.302;2023-12-07T04:34:32;5.45;;;3.30;;
40314;SDS011;26021;45.640;11.302;2023-12-07T04:36:57;6.28;;;4.20;;
40314;SDS011;26021;45.640;11.302;2023-12-07T04:39:23;5.72;;;4.05;;
40314;SDS011;26021;45.640;11.302;2023-12-07T04:41:48;5.28;;;3.92;;
40314;SDS011;26021;45.640;11.302;2023-12-07T04:44:14;8.05;;;4.72;;
40314;SDS011;26021;45.640;11.302;2023-12-07T04:46:40;6.78;;;4.13;;
40314;SDS011;26021;45.640;11.302;2023-12-07T04:49:07;6.90;;;4.65;;
40314;SDS011;26021;45.640;11.302;2023-12-07T04:51:32;5.90;;;3.65;;
40314;SDS011;26021;45.640;11.302;2023-12-07T04:53:58;8.32;;;4.18;;
40314;SDS011;26021;45.640;11.302;2023-12-07T04:56:23;5.60;;;3.78;;
40314;SDS011;26021;45.640;11.302;2023-12-07T04:58:48;5.30;;;3.42;;
40314;SDS011;26021;45.640;11.302;2023-12-07T05:01:14;7.35;;;3.97;;
40314;SDS011;26021;45.640;11.302;2023-12-07T05:03:39;7.75;;;3.83;;
40314;SDS011;26021;45.640;11.302;2023-12-07T05:06:05;9.05;;;7.45;;
40314;SDS011;26021;45.640;11.302;2023-12-07T05:08:30;9.57;;;6.63;;
40314;SDS011;26021;45.640;11.302;2023-12-07T05:10:57;8.15;;;6.35;;
40314;SDS011;26021;45.640;11.302;2023-12-07T05:13:23;6.38;;;4.15;;
40314;SDS011;26021;45.640;11.302;2023-12-07T05:15:48;4.72;;;3.95;;
40314;SDS011;26021;45.640;11.302;2023-12-07T05:18:13;7.25;;;5.28;;
40314;SDS011;26021;45.640;11.302;2023-12-07T05:20:39;5.68;;;3.80;;
40314;SDS011;26021;45.640;11.302;2023-12-07T05:23:04;5.88;;;3.88;;
40314;SDS011;26021;45.640;11.302;2023-12-07T05:25:31;27.25;;;14.73;;
40314;SDS011;26021;45.640;11.302;2023-12-07T05:27:57;7.13;;;5.00;;
40314;SDS011;26021;45.640;11.302;2023-12-07T05:30:23;11.60;;;4.68;;
40314;SDS011;26021;45.640;11.302;2023-12-07T05:32:48;7.40;;;5.25;;
40314;SDS011;26021;45.640;11.302;2023-12-07T05:35:14;7.10;;;5.20;;
40314;SDS011;26021;45.640;11.302;2023-12-07T05:37:39;7.15;;;5.47;;
40314;SDS011;26021;45.640;11.302;2023-12-07T05:40:05;6.13;;;4.93;;
40314;SDS011;26021;45.640;11.302;2023-12-07T05:42:31;6.10;;;4.75;;
40314;SDS011;26021;45.640;11.302;2023-12-07T05:44:57;5.90;;;3.83;;
40314;SDS011;26021;45.640;11.302;2023-12-07T05:47:23;4.45;;;3.58;;
40314;SDS011;26021;45.640;11.302;2023-12-07T05:49:48;5.82;;;4.07;;
40314;SDS011;26021;45.640;11.302;2023-12-07T05:52:14;5.28;;;4.03;;
40314;SDS011;26021;45.640;11.302;2023-12-07T05:54:39;6.38;;;4.70;;
40314;SDS011;26021;45.640;11.302;2023-12-07T05:57:07;6.15;;;4.32;;
40314;SDS011;26021;45.640;11.302;2023-12-07T05:59:36;6.65;;;5.03;;
40314;SDS011;26021;45.640;11.302;2023-12-07T06:02:03;7.18;;;4.60;;
40314;SDS011;26021;45.640;11.302;2023-12-07T06:04:29;7.38;;;5.20;;
40314;SDS011;26021;45.640;11.302;2023-12-07T06:06:55;9.95;;;6.45;;
40314;SDS011;26021;45.640;11.302;2023-12-07T06:09:20;9.32;;;7.07;;
40314;SDS011;26021;45.640;11.302;2023-12-07T06:11:46;11.00;;;7.38;;
40314;SDS011;26021;45.640;11.302;2023-12-07T06:14:11;9.38;;;7.03;;
40314;SDS011;26021;45.640;11.302;2023-12-07T06:16:37;5.80;;;4.72;;
40314;SDS011;26021;45.640;11.302;2023-12-07T06:19:02;8.05;;;5.57;;
40314;SDS011;26021;45.640;11.302;2023-12-07T06:21:28;7.45;;;5.57;;
40314;SDS011;26021;45.640;11.302;2023-12-07T06:23:55;9.13;;;7.03;;
40314;SDS011;26021;45.640;11.302;2023-12-07T06:26:21;7.05;;;5.72;;
40314;SDS011;26021;45.640;11.302;2023-12-07T06:28:46;8.90;;;7.00;;
40314;SDS011;26021;45.640;11.302;2023-12-07T06:31:12;9.65;;;6.97;;
40314;SDS011;26021;45.640;11.302;2023-12-07T06:33:40;8.20;;;6.22;;
40314;SDS011;26021;45.640;11.302;2023-12-07T06:36:05;13.55;;;9.32;;
40314;SDS011;26021;45.640;11.302;2023-12-07T06:38:31;14.70;;;10.05;;
40314;SDS011;26021;45.640;11.302;2023-12-07T06:40:56;19.58;;;7.45;;
40314;SDS011;26021;45.640;11.302;2023-12-07T06:43:22;10.27;;;6.93;;
40314;SDS011;26021;45.640;11.302;2023-12-07T06:45:48;10.05;;;7.47;;
40314;SDS011;26021;45.640;11.302;2023-12-07T06:48:13;12.18;;;7.47;;
40314;SDS011;26021;45.640;11.302;2023-12-07T06:50:38;10.68;;;8.27;;
40314;SDS011;26021;45.640;11.302;2023-12-07T06:53:04;10.50;;;7.82;;
40314;SDS011;26021;45.640;11.302;2023-12-07T06:55:30;10.10;;;8.25;;
40314;SDS011;26021;45.640;11.302;2023-12-07T06:57:55;7.55;;;5.43;;
40314;SDS011;26021;45.640;11.302;2023-12-07T07:00:21;7.35;;;5.28;;
40314;SDS011;26021;45.640;11.302;2023-12-07T07:02:46;8.38;;;5.05;;
40314;SDS011;26021;45.640;11.302;2023-12-07T07:05:12;8.60;;;5.68;;
40314;SDS011;26021;45.640;11.302;2023-12-07T07:07:37;5.60;;;4.75;;
40314;SDS011;26021;45.640;11.302;2023-12-07T07:10:03;10.70;;;6.25;;
40314;SDS011;26021;45.640;11.302;2023-12-07T07:12:29;8.43;;;6.20;;
40314;SDS011;26021;45.640;11.302;2023-12-07T07:14:55;8.73;;;6.80;;
40314;SDS011;26021;45.640;11.302;2023-12-07T07:17:21;12.32;;;8.45;;
40314;SDS011;26021;45.640;11.302;2023-12-07T07:19:46;13.30;;;9.10;;
40314;SDS011;26021;45.640;11.302;2023-12-07T07:22:12;19.85;;;11.23;;
40314;SDS011;26021;45.640;11.302;2023-12-07T07:24:37;69.53;;;30.48;;
40314;SDS011;26021;45.640;11.302;2023-12-07T07:27:03;27.20;;;13.00;;
40314;SDS011;26021;45.640;11.302;2023-12-07T07:29:29;34.42;;;16.95;;
40314;SDS011;26021;45.640;11.302;2023-12-07T07:31:54;35.10;;;16.65;;
40314;SDS011;26021;45.640;11.302;2023-12-07T07:34:21;17.80;;;10.10;;
40314;SDS011;26021;45.640;11.302;2023-12-07T07:36:46;12.85;;;7.60;;
40314;SDS011;26021;45.640;11.302;2023-12-07T07:39:12;11.52;;;7.10;;
40314;SDS011;26021;45.640;11.302;2023-12-07T07:41:39;12.50;;;7.80;;
40314;SDS011;26021;45.640;11.302;2023-12-07T07:44:04;13.88;;;9.63;;
40314;SDS011;26021;45.640;11.302;2023-12-07T07:46:30;16.30;;;11.90;;
40314;SDS011;26021;45.640;11.302;2023-12-07T07:48:55;19.52;;;12.02;;
40314;SDS011;26021;45.640;11.302;2023-12-07T07:51:21;14.82;;;10.63;;
40314;SDS011;26021;45.640;11.302;2023-12-07T07:53:46;24.77;;;14.73;;
40314;SDS011;26021;45.640;11.302;2023-12-07T07:56:12;24.50;;;15.23;;
40314;SDS011;26021;45.640;11.302;2023-12-07T07:58:37;20.23;;;14.00;;
40314;SDS011;26021;45.640;11.302;2023-12-07T08:01:03;18.70;;;13.32;;
40314;SDS011;26021;45.640;11.302;2023-12-07T08:03:28;18.70;;;12.68;;
40314;SDS011;26021;45.640;11.302;2023-12-07T08:05:53;17.30;;;12.50;;
40314;SDS011;26021;45.640;11.302;2023-12-07T08:08:19;19.65;;;11.77;;
40314;SDS011;26021;45.640;11.302;2023-12-07T08:10:45;22.77;;;13.80;;
40314;SDS011;26021;45.640;11.302;2023-12-07T08:13:10;19.08;;;13.77;;
40314;SDS011;26021;45.640;11.302;2023-12-07T08:15:35;19.50;;;13.38;;
40314;SDS011;26021;45.640;11.302;2023-12-07T08:18:01;16.73;;;11.90;;
40314;SDS011;26021;45.640;11.302;2023-12-07T08:20:27;31.75;;;21.10;;
40314;SDS011;26021;45.640;11.302;2023-12-07T08:22:52;56.75;;;35.97;;
40314;SDS011;26021;45.640;11.302;2023-12-07T08:25:18;26.42;;;15.38;;
40314;SDS011;26021;45.640;11.302;2023-12-07T08:27:44;25.00;;;14.40;;
40314;SDS011;26021;45.640;11.302;2023-12-07T08:30:11;17.67;;;12.07;;
40314;SDS011;26021;45.640;11.302;2023-12-07T08:32:37;16.42;;;11.32;;
40314;SDS011;26021;45.640;11.302;2023-12-07T08:35:03;19.30;;;11.80;;
40314;SDS011;26021;45.640;11.302;2023-12-07T08:37:30;16.05;;;12.85;;
40314;SDS011;26021;45.640;11.302;2023-12-07T08:39:56;21.92;;;16.23;;
40314;SDS011;26021;45.640;11.302;2023-12-07T08:42:22;12.85;;;9.05;;
40314;SDS011;26021;45.640;11.302;2023-12-07T08:44:47;16.77;;;8.82;;
40314;SDS011;26021;45.640;11.302;2023-12-07T08:47:13;14.35;;;10.45;;
40314;SDS011;26021;45.640;11.302;2023-12-07T08:49:38;15.88;;;10.63;;
40314;SDS011;26021;45.640;11.302;2023-12-07T08:52:03;16.15;;;11.90;;
40314;SDS011;26021;45.640;11.302;2023-12-07T08:54:29;22.15;;;13.27;;
40314;SDS011;26021;45.640;11.302;2023-12-07T08:56:55;17.80;;;12.48;;
40314;SDS011;26021;45.640;11.302;2023-12-07T08:59:20;17.48;;;11.30;;
40314;SDS011;26021;45.640;11.302;2023-12-07T09:01:45;16.58;;;11.85;;
40314;SDS011;26021;45.640;11.302;2023-12-07T09:04:11;15.18;;;10.20;;
40314;SDS011;26021;45.640;11.302;2023-12-07T09:06:37;12.38;;;9.25;;
40314;SDS011;26021;45.640;11.302;2023-12-07T09:09:03;14.38;;;10.77;;
40314;SDS011;26021;45.640;11.302;2023-12-07T09:11:29;14.85;;;9.85;;
40314;SDS011;26021;45.640;11.302;2023-12-07T09:13:55;14.82;;;9.50;;
40314;SDS011;26021;45.640;11.302;2023-12-07T09:16:20;11.80;;;8.95;;
40314;SDS011;26021;45.640;11.302;2023-12-07T09:18:46;10.57;;;7.90;;
40314;SDS011;26021;45.640;11.302;2023-12-07T09:21:12;9.50;;;7.93;;
40314;SDS011;26021;45.640;11.302;2023-12-07T09:23:37;12.32;;;9.07;;
40314;SDS011;26021;45.640;11.302;2023-12-07T09:26:03;13.13;;;9.32;;
40314;SDS011;26021;45.640;11.302;2023-12-07T09:28:28;13.93;;;9.80;;
40314;SDS011;26021;45.640;11.302;2023-12-07T09:30:54;14.75;;;9.27;;
40314;SDS011;26021;45.640;11.302;2023-12-07T09:33:19;11.70;;;9.10;;
40314;SDS011;26021;45.640;11.302;2023-12-07T09:35:45;12.43;;;10.07;;
40314;SDS011;26021;45.640;11.302;2023-12-07T09:38:10;22.23;;;10.80;;
40314;SDS011;26021;45.640;11.302;2023-12-07T09:40:35;12.38;;;8.80;;
40314;SDS011;26021;45.640;11.302;2023-12-07T09:43:01;69.30;;;49.17;;
40314;SDS011;26021;45.640;11.302;2023-12-07T09:45:26;21.58;;;15.10;;
40314;SDS011;26021;45.640;11.302;2023-12-07T09:47:53;18.25;;;12.75;;
40314;SDS011;26021;45.640;11.302;2023-12-07T09:50:23;19.67;;;13.70;;
40314;SDS011;26021;45.640;11.302;2023-12-07T09:52:51;22.10;;;14.52;;
40314;SDS011;26021;45.640;11.302;2023-12-07T09:55:18;15.57;;;13.50;;
40314;SDS011;26021;45.640;11.302;2023-12-07T09:57:44;22.65;;;13.48;;
40314;SDS011;26021;45.640;11.302;2023-12-07T10:00:13;17.60;;;12.73;;
40314;SDS011;26021;45.640;11.302;2023-12-07T10:02:43;17.33;;;13.40;;
40314;SDS011;26021;45.640;11.302;2023-12-07T10:05:10;20.02;;;13.43;;
40314;SDS011;26021;45.640;11.302;2023-12-07T10:07:46;20.67;;;14.18;;
40314;SDS011;26021;45.640;11.302;2023-12-07T10:10:15;16.98;;;13.55;;
40314;SDS011;26021;45.640;11.302;2023-12-07T10:12:54;19.45;;;13.90;;
40314;SDS011;26021;45.640;11.302;2023-12-07T10:15:21;28.08;;;19.52;;
40314;SDS011;26021;45.640;11.302;2023-12-07T10:17:54;24.23;;;18.20;;
40314;SDS011;26021;45.640;11.302;2023-12-07T10:20:28;24.40;;;17.00;;
40314;SDS011;26021;45.640;11.302;2023-12-07T10:25:30;19.30;;;14.60;;
40314;SDS011;26021;45.640;11.302;2023-12-07T10:27:56;22.92;;;15.27;;
40314;SDS011;26021;45.640;11.302;2023-12-07T10:30:22;22.40;;;15.50;;
40314;SDS011;26021;45.640;11.302;2023-12-07T10:32:51;21.17;;;15.68;;
40314;SDS011;26021;45.640;11.302;2023-12-07T10:35:17;20.30;;;15.90;;
40314;SDS011;26021;45.640;11.302;2023-12-07T10:37:43;20.92;;;15.45;;
40314;SDS011;26021;45.640;11.302;2023-12-07T10:40:09;21.77;;;15.98;;
40314;SDS011;26021;45.640;11.302;2023-12-07T10:42:35;22.75;;;16.30;;
40314;SDS011;26021;45.640;11.302;2023-12-07T10:45:03;20.83;;;16.33;;
40314;SDS011;26021;45.640;11.302;2023-12-07T10:47:31;20.73;;;15.13;;
40314;SDS011;26021;45.640;11.302;2023-12-07T10:50:01;17.92;;;13.73;;
40314;SDS011;26021;45.640;11.302;2023-12-07T10:52:30;18.90;;;14.30;;
40314;SDS011;26021;45.640;11.302;2023-12-07T10:55:10;18.13;;;14.95;;
40314;SDS011;26021;45.640;11.302;2023-12-07T10:57:40;18.48;;;13.23;;
40314;SDS011;26021;45.640;11.302;2023-12-07T11:00:07;18.27;;;13.18;;
40314;SDS011;26021;45.640;11.302;2023-12-07T11:02:34;16.52;;;12.25;;
40314;SDS011;26021;45.640;11.302;2023-12-07T11:05:01;18.83;;;12.48;;
40314;SDS011;26021;45.640;11.302;2023-12-07T11:07:30;13.98;;;11.40;;
40314;SDS011;26021;45.640;11.302;2023-12-07T11:10:07;13.55;;;10.55;;
40314;SDS011;26021;45.640;11.302;2023-12-07T11:12:43;15.88;;;11.52;;
40314;SDS011;26021;45.640;11.302;2023-12-07T11:15:14;12.27;;;9.00;;
40314;SDS011;26021;45.640;11.302;2023-12-07T11:17:49;12.65;;;10.00;;
40314;SDS011;26021;45.640;11.302;2023-12-07T11:20:21;12.73;;;9.85;;
40314;SDS011;26021;45.640;11.302;2023-12-07T11:22:56;12.98;;;9.40;;
40314;SDS011;26021;45.640;11.302;2023-12-07T11:25:21;12.85;;;9.57;;
40314;SDS011;26021;45.640;11.302;2023-12-07T11:27:47;11.30;;;8.43;;
40314;SDS011;26021;45.640;11.302;2023-12-07T11:30:13;12.57;;;8.55;;
40314;SDS011;26021;45.640;11.302;2023-12-07T11:32:40;12.20;;;10.05;;
40314;SDS011;26021;45.640;11.302;2023-12-07T11:35:05;11.85;;;9.27;;
40314;SDS011;26021;45.640;11.302;2023-12-07T11:40:40;17.23;;;11.32;;
40314;SDS011;26021;45.640;11.302;2023-12-07T11:43:06;12.35;;;10.20;;
40314;SDS011;26021;45.640;11.302;2023-12-07T11:45:36;13.82;;;10.15;;
40314;SDS011;26021;45.640;11.302;2023-12-07T11:51:00;12.25;;;8.85;;
40314;SDS011;26021;45.640;11.302;2023-12-07T11:53:30;10.45;;;8.48;;
40314;SDS011;26021;45.640;11.302;2023-12-07T11:55:57;9.77;;;7.43;;
40314;SDS011;26021;45.640;11.302;2023-12-07T11:58:24;9.95;;;7.80;;
40314;SDS011;26021;45.640;11.302;2023-12-07T12:00:51;10.13;;;8.00;;
40314;SDS011;26021;45.640;11.302;2023-12-07T12:03:18;10.52;;;8.05;;
40314;SDS011;26021;45.640;11.302;2023-12-07T12:05:44;12.30;;;8.02;;
40314;SDS011;26021;45.640;11.302;2023-12-07T12:08:10;9.02;;;7.50;;
40314;SDS011;26021;45.640;11.302;2023-12-07T12:10:40;11.02;;;8.10;;
40314;SDS011;26021;45.640;11.302;2023-12-07T12:13:07;10.27;;;7.90;;
40314;SDS011;26021;45.640;11.302;2023-12-07T12:15:33;10.30;;;7.93;;
40314;SDS011;26021;45.640;11.302;2023-12-07T12:17:59;10.85;;;7.75;;
40314;SDS011;26021;45.640;11.302;2023-12-07T12:20:25;10.98;;;7.07;;
40314;SDS011;26021;45.640;11.302;2023-12-07T12:22:51;9.18;;;6.65;;
40314;SDS011;26021;45.640;11.302;2023-12-07T12:25:23;9.85;;;6.85;;
40314;SDS011;26021;45.640;11.302;2023-12-07T12:27:56;8.55;;;5.72;;
40314;SDS011;26021;45.640;11.302;2023-12-07T12:30:22;6.43;;;5.20;;
40314;SDS011;26021;45.640;11.302;2023-12-07T12:32:49;7.47;;;5.60;;
40314;SDS011;26021;45.640;11.302;2023-12-07T12:35:15;9.18;;;6.53;;
40314;SDS011;26021;45.640;11.302;2023-12-07T12:37:42;6.72;;;6.07;;
40314;SDS011;26021;45.640;11.302;2023-12-07T12:40:08;9.48;;;6.95;;
40314;SDS011;26021;45.640;11.302;2023-12-07T12:42:36;18.92;;;13.18;;
40314;SDS011;26021;45.640;11.302;2023-12-07T12:45:04;15.95;;;10.20;;
40314;SDS011;26021;45.640;11.302;2023-12-07T12:47:30;10.85;;;8.10;;
40314;SDS011;26021;45.640;11.302;2023-12-07T12:49:58;12.05;;;8.50;;
40314;SDS011;26021;45.640;11.302;2023-12-07T12:52:24;10.85;;;7.82;;
40314;SDS011;26021;45.640;11.302;2023-12-07T12:54:51;12.00;;;8.35;;
40314;SDS011;26021;45.640;11.302;2023-12-07T12:57:19;11.88;;;8.25;;
40314;SDS011;26021;45.640;11.302;2023-12-07T12:59:45;10.73;;;7.53;;
40314;SDS011;26021;45.640;11.302;2023-12-07T13:02:13;21.60;;;8.07;;
40314;SDS011;26021;45.640;11.302;2023-12-07T13:04:38;15.57;;;8.23;;
40314;SDS011;26021;45.640;11.302;2023-12-07T13:07:05;12.23;;;7.60;;
40314;SDS011;26021;45.640;11.302;2023-12-07T13:09:30;10.65;;;8.70;;
40314;SDS011;26021;45.640;11.302;2023-12-07T13:11:56;11.35;;;8.00;;
40314;SDS011;26021;45.640;11.302;2023-12-07T13:14:22;10.57;;;7.60;;
40314;SDS011;26021;45.640;11.302;2023-12-07T13:16:48;13.32;;;8.77;;
40314;SDS011;26021;45.640;11.302;2023-12-07T13:19:13;9.75;;;7.90;;
40314;SDS011;26021;45.640;11.302;2023-12-07T13:21:39;13.45;;;7.57;;
40314;SDS011;26021;45.640;11.302;2023-12-07T13:24:04;9.82;;;7.60;;
40314;SDS011;26021;45.640;11.302;2023-12-07T13:26:31;9.50;;;7.93;;
40314;SDS011;26021;45.640;11.302;2023-12-07T13:28:56;10.02;;;7.63;;
40314;SDS011;26021;45.640;11.302;2023-12-07T13:31:22;12.27;;;8.23;;
40314;SDS011;26021;45.640;11.302;2023-12-07T13:33:47;10.13;;;8.15;;
40314;SDS011;26021;45.640;11.302;2023-12-07T13:36:13;9.13;;;8.00;;
40314;SDS011;26021;45.640;11.302;2023-12-07T13:38:39;10.02;;;8.02;;
40314;SDS011;26021;45.640;11.302;2023-12-07T13:41:05;10.48;;;8.00;;
40314;SDS011;26021;45.640;11.302;2023-12-07T13:43:32;10.20;;;8.38;;
40314;SDS011;26021;45.640;11.302;2023-12-07T13:45:58;13.23;;;9.80;;
40314;SDS011;26021;45.640;11.302;2023-12-07T13:48:24;15.43;;;11.13;;
40314;SDS011;26021;45.640;11.302;2023-12-07T13:50:49;13.10;;;10.30;;
40314;SDS011;26021;45.640;11.302;2023-12-07T13:53:15;18.17;;;10.88;;
40314;SDS011;26021;45.640;11.302;2023-12-07T13:55:41;12.93;;;10.20;;
40314;SDS011;26021;45.640;11.302;2023-12-07T13:58:06;12.90;;;10.38;;
40314;SDS011;26021;45.640;11.302;2023-12-07T14:00:32;16.20;;;12.18;;
40314;SDS011;26021;45.640;11.302;2023-12-07T14:02:59;17.23;;;13.35;;
40314;SDS011;26021;45.640;11.302;2023-12-07T14:05:24;18.67;;;13.73;;
40314;SDS011;26021;45.640;11.302;2023-12-07T14:07:50;19.75;;;14.65;;
40314;SDS011;26021;45.640;11.302;2023-12-07T14:10:16;21.42;;;17.30;;
40314;SDS011;26021;45.640;11.302;2023-12-07T14:12:41;22.38;;;16.92;;
40314;SDS011;26021;45.640;11.302;2023-12-07T14:15:07;23.15;;;19.90;;
40314;SDS011;26021;45.640;11.302;2023-12-07T14:17:33;19.25;;;15.68;;
40314;SDS011;26021;45.640;11.302;2023-12-07T14:20:05;16.75;;;13.05;;
40314;SDS011;26021;45.640;11.302;2023-12-07T14:22:32;16.23;;;12.52;;
40314;SDS011;26021;45.640;11.302;2023-12-07T14:24:58;17.70;;;14.43;;
40314;SDS011;26021;45.640;11.302;2023-12-07T14:27:23;18.60;;;12.93;;
40314;SDS011;26021;45.640;11.302;2023-12-07T14:29:49;23.23;;;14.85;;